createdAt,value
2023-05-19T00:01:13.621Z,21.01
2023-05-19T00:03:41.092Z,21.00
2023-05-19T00:06:10.573Z,20.98
2023-05-19T00:08:37.981Z,20.96
2023-05-19T00:11:04.478Z,20.96
2023-05-19T00:13:31.004Z,20.96
2023-05-19T00:15:57.539Z,20.94
2023-05-19T00:18:23.927Z,20.94
2023-05-19T00:20:52.292Z,20.94
2023-05-19T00:23:18.669Z,20.92
2023-05-19T00:25:45.048Z,20.92
2023-05-19T00:28:11.396Z,20.90
2023-05-19T00:30:37.750Z,20.87
2023-05-19T00:33:04.140Z,20.87
2023-05-19T00:35:30.539Z,20.87
2023-05-19T00:37:57.273Z,20.86
2023-05-19T00:40:23.623Z,20.85
2023-05-19T00:42:49.979Z,20.83
2023-05-19T00:45:16.376Z,20.84
2023-05-19T00:47:42.921Z,20.82
2023-05-19T00:50:09.498Z,20.80
2023-05-19T00:52:35.880Z,20.77
2023-05-19T00:55:02.291Z,20.76
2023-05-19T00:57:28.688Z,20.76
2023-05-19T00:59:55.059Z,20.75
2023-05-19T01:02:21.631Z,20.75
2023-05-19T01:04:48.376Z,20.73
2023-05-19T01:07:15.256Z,20.72
2023-05-19T01:09:41.673Z,20.70
2023-05-19T01:12:08.028Z,20.67
2023-05-19T01:14:34.402Z,20.67
2023-05-19T01:17:14.272Z,20.68
2023-05-19T01:19:40.564Z,20.67
2023-05-19T01:22:07.625Z,20.64
2023-05-19T01:25:03.547Z,20.64
2023-05-19T01:27:34.905Z,20.64
2023-05-19T01:30:10.052Z,20.64
2023-05-19T01:32:36.470Z,20.64
2023-05-19T01:35:02.851Z,20.65
2023-05-19T01:37:29.221Z,20.64
2023-05-19T01:39:55.980Z,20.64
2023-05-19T01:42:22.367Z,20.62
2023-05-19T01:44:48.739Z,20.59
2023-05-19T01:47:15.119Z,20.57
2023-05-19T01:49:41.596Z,20.55
2023-05-19T01:52:07.971Z,20.56
2023-05-19T01:54:34.358Z,20.56
2023-05-19T01:57:04.327Z,20.54
2023-05-19T01:59:43.344Z,20.53
2023-05-19T02:02:14.073Z,20.59
2023-05-19T02:05:00.963Z,20.69
2023-05-19T02:07:48.425Z,20.81
2023-05-19T02:10:15.117Z,20.89
2023-05-19T02:12:41.481Z,20.94
2023-05-19T02:15:07.859Z,20.98
2023-05-19T02:17:36.236Z,21.05
2023-05-19T02:20:04.516Z,21.08
2023-05-19T02:22:31.080Z,21.08
2023-05-19T02:24:57.509Z,21.08
2023-05-19T02:27:24.232Z,21.08
2023-05-19T02:29:50.601Z,21.07
2023-05-19T02:32:17.236Z,21.05
2023-05-19T02:34:45.464Z,21.09
2023-05-19T02:37:15.008Z,21.18
2023-05-19T02:39:41.755Z,21.32
2023-05-19T02:42:08.151Z,21.39
2023-05-19T02:44:34.540Z,21.40
2023-05-19T02:47:00.958Z,21.42
2023-05-19T02:49:27.454Z,21.40
2023-05-19T02:51:53.894Z,21.40
2023-05-19T02:54:20.307Z,21.37
2023-05-19T02:56:46.913Z,21.36
2023-05-19T02:59:14.989Z,21.35
2023-05-19T03:01:41.435Z,21.35
2023-05-19T03:04:07.857Z,21.34
2023-05-19T03:06:34.308Z,21.33
2023-05-19T03:09:00.676Z,21.32
2023-05-19T03:11:27.033Z,21.30
2023-05-19T03:13:53.391Z,21.29
2023-05-19T03:16:20.069Z,21.28
2023-05-19T03:18:46.530Z,21.27
2023-05-19T03:21:12.916Z,21.28
2023-05-19T03:23:39.293Z,21.29
2023-05-19T03:26:06.174Z,21.29
2023-05-19T03:28:32.804Z,21.26
2023-05-19T03:30:59.180Z,21.25
2023-05-19T03:33:27.988Z,21.22
2023-05-19T03:35:54.436Z,21.19
2023-05-19T03:38:20.806Z,21.16
2023-05-19T03:40:47.244Z,21.16
2023-05-19T03:43:13.749Z,21.14
2023-05-19T03:45:40.138Z,21.19
2023-05-19T03:48:06.635Z,21.29
2023-05-19T03:50:34.098Z,21.46
2023-05-19T03:53:00.998Z,21.52
2023-05-19T03:55:29.818Z,21.56
2023-05-19T03:57:56.754Z,21.56
2023-05-19T04:00:23.743Z,21.58
2023-05-19T04:02:50.191Z,21.54
2023-05-19T04:05:16.598Z,21.55
2023-05-19T04:07:43.192Z,21.55
2023-05-19T04:10:09.681Z,21.55
2023-05-19T04:12:36.100Z,21.56
2023-05-19T04:15:02.456Z,21.54
2023-05-19T04:17:29.226Z,21.53
2023-05-19T04:19:55.694Z,21.53
2023-05-19T04:22:22.251Z,21.54
2023-05-19T04:24:48.928Z,21.53
2023-05-19T04:27:16.373Z,21.51
2023-05-19T04:29:42.747Z,21.50
2023-05-19T04:32:09.216Z,21.51
2023-05-19T04:34:35.648Z,21.51
2023-05-19T04:37:02.169Z,21.52
2023-05-19T04:39:28.543Z,21.54
2023-05-19T04:41:54.912Z,21.53
2023-05-19T04:44:21.277Z,21.54
2023-05-19T04:46:47.665Z,21.58
2023-05-19T04:49:14.469Z,21.59
2023-05-19T04:51:46.013Z,21.61
2023-05-19T04:54:12.442Z,21.61
2023-05-19T04:56:38.953Z,21.67
2023-05-19T04:59:05.526Z,21.77
2023-05-19T05:01:32.941Z,21.94
2023-05-19T05:03:59.461Z,22.07
2023-05-19T05:06:26.469Z,22.10
2023-05-19T05:08:52.915Z,22.16
2023-05-19T05:11:19.365Z,22.18
2023-05-19T05:13:46.038Z,22.23
2023-05-19T05:16:12.833Z,22.23
2023-05-19T05:18:39.372Z,22.26
2023-05-19T05:21:06.608Z,22.28
2023-05-19T05:23:33.012Z,22.31
2023-05-19T05:25:59.708Z,22.32
2023-05-19T05:28:26.127Z,22.32
2023-05-19T05:30:52.485Z,22.31
2023-05-19T05:33:19.432Z,22.34
2023-05-19T05:35:46.636Z,22.36
2023-05-19T05:38:13.004Z,22.37
2023-05-19T05:40:39.361Z,22.37
2023-05-19T05:43:05.827Z,22.39
2023-05-19T05:45:32.420Z,22.41
2023-05-19T05:47:59.135Z,22.41
2023-05-19T05:50:25.786Z,22.40
2023-05-19T05:52:52.647Z,22.41
2023-05-19T05:55:19.136Z,22.43
2023-05-19T05:57:45.528Z,22.43
2023-05-19T06:00:18.137Z,22.45
2023-05-19T06:02:46.435Z,22.47
2023-05-19T06:05:14.030Z,22.47
2023-05-19T06:07:40.791Z,22.53
2023-05-19T06:10:07.334Z,22.69
2023-05-19T06:12:34.747Z,22.82
2023-05-19T06:15:02.225Z,22.93
2023-05-19T06:17:28.936Z,23.08
2023-05-19T06:19:55.415Z,23.25
2023-05-19T06:22:21.766Z,23.33
2023-05-19T06:24:48.469Z,23.38
2023-05-19T06:27:14.865Z,23.40
2023-05-19T06:29:41.236Z,23.14
2023-05-19T06:32:07.634Z,22.03
2023-05-19T06:34:34.009Z,21.56
2023-05-19T06:37:02.332Z,21.26
2023-05-19T06:39:28.709Z,21.25
2023-05-19T06:41:55.092Z,21.17
2023-05-19T06:44:22.155Z,20.89
2023-05-19T06:46:48.678Z,20.46
2023-05-19T06:49:15.322Z,20.52
2023-05-19T06:51:41.696Z,20.69
2023-05-19T06:54:10.977Z,20.36
2023-05-19T06:56:37.408Z,20.32
2023-05-19T06:59:04.021Z,20.55
2023-05-19T07:01:30.979Z,21.17
2023-05-19T07:03:57.526Z,21.23
2023-05-19T07:06:23.986Z,21.18
2023-05-19T07:08:50.480Z,21.13
2023-05-19T07:11:17.430Z,21.15
2023-05-19T07:13:43.789Z,21.15
2023-05-19T07:16:10.267Z,21.11
2023-05-19T07:18:36.653Z,21.09
2023-05-19T07:21:03.049Z,21.06
2023-05-19T07:23:29.641Z,21.16
2023-05-19T07:25:57.075Z,21.25
2023-05-19T07:28:24.057Z,21.38
2023-05-19T07:30:51.067Z,21.27
2023-05-19T07:33:17.919Z,21.34
2023-05-19T07:35:45.608Z,21.36
2023-05-19T07:38:12.506Z,21.41
2023-05-19T07:40:39.293Z,21.34
2023-05-19T07:43:05.679Z,21.33
2023-05-19T07:45:32.825Z,21.36
2023-05-19T07:47:59.543Z,21.38
2023-05-19T07:50:26.559Z,21.33
2023-05-19T07:52:53.215Z,21.33
2023-05-19T07:55:19.565Z,21.24
2023-05-19T07:57:45.938Z,21.22
2023-05-19T08:00:12.609Z,21.21
2023-05-19T08:02:39.138Z,21.22
2023-05-19T08:05:05.762Z,21.21
2023-05-19T08:07:32.131Z,21.23
2023-05-19T08:09:58.488Z,21.27
2023-05-19T08:12:24.860Z,21.30
2023-05-19T08:14:51.284Z,21.12
2023-05-19T08:17:17.655Z,21.14
2023-05-19T08:19:44.019Z,21.13
2023-05-19T08:22:10.465Z,21.12
2023-05-19T08:24:36.973Z,21.15
2023-05-19T08:27:04.842Z,21.19
2023-05-19T08:29:31.900Z,21.09
2023-05-19T08:31:58.477Z,21.11
2023-05-19T08:34:24.866Z,21.13
2023-05-19T08:36:51.275Z,21.20
2023-05-19T08:39:24.157Z,21.11
2023-05-19T08:41:50.592Z,21.18
2023-05-19T08:44:18.272Z,21.28
2023-05-19T08:46:45.473Z,21.22
2023-05-19T08:49:12.386Z,21.49
2023-05-19T08:51:44.549Z,21.55
2023-05-19T08:54:14.719Z,21.40
2023-05-19T08:56:42.064Z,21.40
2023-05-19T08:59:08.438Z,21.46
2023-05-19T09:04:01.338Z,21.40
2023-05-19T09:06:27.822Z,21.50
2023-05-19T09:08:54.394Z,21.56
2023-05-19T09:11:22.783Z,21.59
2023-05-19T09:13:49.700Z,21.56
2023-05-19T09:16:17.287Z,21.60
2023-05-19T09:19:09.995Z,21.52
2023-05-19T09:21:37.227Z,21.58
2023-05-19T09:24:06.840Z,21.57
2023-05-19T09:26:37.534Z,21.39
2023-05-19T09:29:10.487Z,21.44
2023-05-19T09:31:36.901Z,21.31
2023-05-19T09:34:03.266Z,21.41
2023-05-19T09:36:29.917Z,21.50
2023-05-19T09:38:56.277Z,21.52
2023-05-19T09:41:23.248Z,21.43
2023-05-19T09:43:59.930Z,21.43
2023-05-19T09:46:30.130Z,21.43
2023-05-19T09:48:59.616Z,21.39
2023-05-19T09:51:26.052Z,21.49
2023-05-19T09:53:52.827Z,21.37
2023-05-19T09:56:23.622Z,21.42
2023-05-19T09:58:50.022Z,21.21
2023-05-19T10:01:16.412Z,21.32
2023-05-19T10:03:43.066Z,21.25
2023-05-19T10:06:09.437Z,21.21
2023-05-19T10:08:36.058Z,21.07
2023-05-19T10:11:02.502Z,21.04
2023-05-19T10:13:29.213Z,21.06
2023-05-19T10:15:59.407Z,21.21
2023-05-19T10:18:26.898Z,21.18
2023-05-19T10:20:53.301Z,21.21
2023-05-19T10:23:19.669Z,21.33
2023-05-19T10:25:46.082Z,21.31
2023-05-19T10:28:13.798Z,21.38
2023-05-19T10:30:44.601Z,21.30
2023-05-19T10:33:12.186Z,21.27
2023-05-19T10:35:57.127Z,21.27
2023-05-19T10:38:33.646Z,21.21
2023-05-19T10:41:09.106Z,21.14
2023-05-19T10:43:46.765Z,21.16
2023-05-19T10:46:13.169Z,21.26
2023-05-19T10:48:39.550Z,21.28
2023-05-19T10:51:06.115Z,21.32
2023-05-19T10:53:32.680Z,21.35
2023-05-19T10:56:00.008Z,21.12
2023-05-19T10:58:39.427Z,21.03
2023-05-19T11:01:10.031Z,21.18
2023-05-19T11:03:49.348Z,21.28
2023-05-19T11:06:18.888Z,21.30
2023-05-19T11:08:45.289Z,21.32
2023-05-19T11:11:15.600Z,21.27
2023-05-19T11:13:51.760Z,21.28
2023-05-19T11:16:19.202Z,21.33
2023-05-19T11:18:48.376Z,21.19
2023-05-19T11:21:14.861Z,21.31
2023-05-19T11:23:41.808Z,21.34
2023-05-19T11:26:09.093Z,21.38
2023-05-19T11:28:36.455Z,21.44
2023-05-19T11:31:02.830Z,21.55
2023-05-19T11:33:29.994Z,21.67
2023-05-19T11:35:59.657Z,21.72
2023-05-19T11:38:26.451Z,21.76
2023-05-19T11:40:52.987Z,21.76
2023-05-19T11:43:19.387Z,21.73
2023-05-19T11:45:45.939Z,21.79
2023-05-19T11:48:12.817Z,21.82
2023-05-19T11:50:42.304Z,21.89
2023-05-19T11:53:08.660Z,21.89
2023-05-19T11:55:35.031Z,21.90
2023-05-19T11:58:05.104Z,21.87
2023-05-19T12:00:38.863Z,21.85
2023-05-19T12:03:05.890Z,21.86
2023-05-19T12:05:34.880Z,21.89
2023-05-19T12:08:02.588Z,21.89
2023-05-19T12:10:30.250Z,21.87
2023-05-19T12:12:57.385Z,21.87
2023-05-19T12:15:24.311Z,21.90
2023-05-19T12:17:51.163Z,21.87
2023-05-19T12:20:18.288Z,21.88
2023-05-19T12:22:44.728Z,21.91
2023-05-19T12:25:11.102Z,21.88
2023-05-19T12:27:38.098Z,21.88
2023-05-19T12:30:04.660Z,21.91
2023-05-19T12:32:31.110Z,21.91
2023-05-19T12:34:57.491Z,21.90
2023-05-19T12:37:27.636Z,21.91
2023-05-19T12:39:54.002Z,21.90
2023-05-19T12:42:20.624Z,21.93
2023-05-19T12:44:47.678Z,21.93
2023-05-19T12:47:14.904Z,21.93
2023-05-19T12:49:56.899Z,21.93
2023-05-19T12:52:23.477Z,21.92
2023-05-19T12:54:50.334Z,21.94
2023-05-19T12:57:16.916Z,21.95
2023-05-19T12:59:43.704Z,21.95
2023-05-19T13:02:10.235Z,21.95
2023-05-19T13:04:36.693Z,21.95
2023-05-19T13:07:03.079Z,21.95
2023-05-19T13:09:29.535Z,21.95
2023-05-19T13:11:55.975Z,21.97
2023-05-19T13:14:22.385Z,21.97
2023-05-19T13:16:48.889Z,21.98
2023-05-19T13:19:25.067Z,21.98
2023-05-19T13:21:52.312Z,21.98
2023-05-19T13:24:18.767Z,21.97
2023-05-19T13:26:45.223Z,21.97
2023-05-19T13:29:11.934Z,21.97
2023-05-19T13:31:38.427Z,21.97
2023-05-19T13:34:04.918Z,21.99
2023-05-19T13:36:33.289Z,21.97
2023-05-19T13:39:00.715Z,21.95
2023-05-19T13:41:27.174Z,21.94
2023-05-19T13:43:53.578Z,21.96
2023-05-19T13:46:26.603Z,21.95
2023-05-19T13:48:59.362Z,21.93
2023-05-19T13:51:26.031Z,21.93
2023-05-19T13:53:52.629Z,21.93
2023-05-19T13:56:19.025Z,21.93
2023-05-19T13:58:45.399Z,21.91
2023-05-19T14:01:11.899Z,21.92
2023-05-19T14:03:38.379Z,21.91
2023-05-19T14:06:04.872Z,21.92
2023-05-19T14:08:31.234Z,21.91
2023-05-19T14:10:57.700Z,21.91
2023-05-19T14:15:53.837Z,21.91
2023-05-19T14:18:20.504Z,21.91
2023-05-19T14:20:46.888Z,21.91
2023-05-19T14:23:14.986Z,21.90
2023-05-19T14:25:41.462Z,21.91
2023-05-19T14:28:07.821Z,21.91
2023-05-19T14:30:34.415Z,21.91
2023-05-19T14:33:01.159Z,21.91
2023-05-19T14:35:27.597Z,21.90
2023-05-19T14:37:53.956Z,21.89
2023-05-19T14:40:20.422Z,21.90
2023-05-19T14:42:46.786Z,21.88
2023-05-19T14:45:13.323Z,21.88
2023-05-19T14:47:39.710Z,21.88
2023-05-19T14:50:06.273Z,21.88
2023-05-19T14:52:32.659Z,21.88
2023-05-19T14:54:59.131Z,21.89
2023-05-19T14:57:25.647Z,21.89
2023-05-19T14:59:52.293Z,21.90
2023-05-19T15:02:18.689Z,21.89
2023-05-19T15:04:45.045Z,21.88
2023-05-19T15:07:11.568Z,21.87
2023-05-19T15:09:37.934Z,21.88
2023-05-19T15:12:04.339Z,21.89
2023-05-19T15:14:31.300Z,21.87
2023-05-19T15:16:58.062Z,21.88
2023-05-19T15:19:24.677Z,21.87
2023-05-19T15:21:51.216Z,21.85
2023-05-19T15:24:17.576Z,21.85
2023-05-19T15:26:43.994Z,21.85
2023-05-19T15:29:10.461Z,21.83
2023-05-19T15:31:38.277Z,21.82
2023-05-19T15:34:04.994Z,21.81
2023-05-19T15:36:31.879Z,21.81
2023-05-19T15:38:58.314Z,21.80
2023-05-19T15:41:24.723Z,21.80
2023-05-19T15:43:51.251Z,21.79
2023-05-19T15:46:19.581Z,21.79
2023-05-19T15:48:46.262Z,21.78
2023-05-19T15:51:12.645Z,21.78
2023-05-19T15:53:39.040Z,21.77
2023-05-19T15:56:05.423Z,21.77
2023-05-19T15:58:31.809Z,21.78
2023-05-19T16:00:58.190Z,21.75
2023-05-19T16:03:24.804Z,21.74
2023-05-19T16:05:51.874Z,21.76
2023-05-19T16:08:18.320Z,21.76
2023-05-19T16:10:44.679Z,21.75
2023-05-19T16:13:11.120Z,21.74
2023-05-19T16:15:37.471Z,21.74
2023-05-19T16:18:03.898Z,21.75
2023-05-19T16:20:30.987Z,21.72
2023-05-19T16:22:57.485Z,21.70
2023-05-19T16:25:23.918Z,21.72
2023-05-19T16:27:50.504Z,21.69
2023-05-19T16:30:16.903Z,21.68
2023-05-19T16:32:43.340Z,21.69
2023-05-19T16:35:10.024Z,21.68
2023-05-19T16:37:36.452Z,21.67
2023-05-19T16:40:02.819Z,21.66
2023-05-19T16:42:29.190Z,21.65
2023-05-19T16:44:55.592Z,21.64
2023-05-19T16:47:21.962Z,21.65
2023-05-19T16:49:48.341Z,21.64
2023-05-19T16:52:14.745Z,21.63
2023-05-19T16:54:41.218Z,21.63
2023-05-19T16:57:07.643Z,21.61
2023-05-19T16:59:34.042Z,21.59
2023-05-19T17:02:00.767Z,21.59
2023-05-19T17:04:29.382Z,21.59
2023-05-19T17:06:57.071Z,21.61
2023-05-19T17:09:25.843Z,21.59
2023-05-19T17:11:52.569Z,21.60
2023-05-19T17:14:18.933Z,21.60
2023-05-19T17:16:45.396Z,21.61
2023-05-19T17:19:12.103Z,21.60
2023-05-19T17:21:38.537Z,21.60
2023-05-19T17:24:04.911Z,21.61
2023-05-19T17:26:31.264Z,21.63
2023-05-19T17:28:57.753Z,21.61
2023-05-19T17:31:24.118Z,21.59
2023-05-19T17:33:50.695Z,21.60
2023-05-19T17:36:17.123Z,21.61
2023-05-19T17:38:43.540Z,21.62
2023-05-19T17:41:10.154Z,21.59
2023-05-19T17:43:37.243Z,21.60
2023-05-19T17:46:03.885Z,21.60
2023-05-19T17:48:31.225Z,21.59
2023-05-19T17:50:57.647Z,21.58
2023-05-19T17:53:24.059Z,21.57
2023-05-19T17:55:51.135Z,21.57
2023-05-19T17:58:17.822Z,21.56
2023-05-19T18:00:44.235Z,21.54
2023-05-19T18:03:11.304Z,21.55
2023-05-19T18:05:39.097Z,21.55
2023-05-19T18:08:09.337Z,21.54
2023-05-19T18:10:36.455Z,21.54
2023-05-19T18:13:03.713Z,21.53
2023-05-19T18:15:30.420Z,21.53
2023-05-19T18:17:56.808Z,21.54
2023-05-19T18:20:23.189Z,21.51
2023-05-19T18:22:49.600Z,21.51
2023-05-19T18:25:16.993Z,21.52
2023-05-19T18:27:43.814Z,21.51
2023-05-19T18:30:10.337Z,21.50
2023-05-19T18:32:36.857Z,21.49
2023-05-19T18:35:03.562Z,21.49
2023-05-19T18:37:29.968Z,21.48
2023-05-19T18:39:56.339Z,21.46
2023-05-19T18:42:22.707Z,21.46
2023-05-19T18:44:50.565Z,21.42
2023-05-19T18:47:18.873Z,21.43
2023-05-19T18:49:45.273Z,21.43
2023-05-19T18:52:11.735Z,21.42
2023-05-19T18:54:38.223Z,21.41
2023-05-19T18:57:05.384Z,21.40
2023-05-19T18:59:31.802Z,21.40
2023-05-19T19:01:58.174Z,21.42
2023-05-19T19:04:24.592Z,21.43
2023-05-19T19:06:52.261Z,21.44
2023-05-19T19:09:18.845Z,21.45
2023-05-19T19:11:45.271Z,21.47
2023-05-19T19:14:11.637Z,21.46
2023-05-19T19:16:38.110Z,21.47
2023-05-19T19:19:04.623Z,21.47
2023-05-19T19:21:31.550Z,21.47
2023-05-19T19:23:58.063Z,21.45
2023-05-19T19:26:26.735Z,21.44
2023-05-19T19:28:53.158Z,21.44
2023-05-19T19:31:19.604Z,21.43
2023-05-19T19:33:46.439Z,21.42
2023-05-19T19:36:12.808Z,21.38
2023-05-19T19:38:39.212Z,21.41
2023-05-19T19:41:05.653Z,21.40
2023-05-19T19:43:32.019Z,21.38
2023-05-19T19:46:01.737Z,21.37
2023-05-19T19:48:28.417Z,21.37
2023-05-19T19:50:55.206Z,21.35
2023-05-19T19:53:21.576Z,21.35
2023-05-19T19:56:00.765Z,21.34
2023-05-19T19:58:27.297Z,21.33
2023-05-19T20:00:57.328Z,21.32
2023-05-19T20:03:23.947Z,21.31
2023-05-19T20:05:50.605Z,21.32
2023-05-19T20:08:16.973Z,21.30
2023-05-19T20:10:43.335Z,21.29
2023-05-19T20:13:09.855Z,21.29
2023-05-19T20:15:36.247Z,21.28
2023-05-19T20:18:02.654Z,21.29
2023-05-19T20:20:29.259Z,21.28
2023-05-19T20:22:55.878Z,21.28
2023-05-19T20:25:22.307Z,21.28
2023-05-19T20:27:48.665Z,21.28
2023-05-19T20:30:15.031Z,21.27
2023-05-19T20:32:41.402Z,21.26
2023-05-19T20:35:08.594Z,21.26
2023-05-19T20:37:34.961Z,21.25
2023-05-19T20:40:01.585Z,21.25
2023-05-19T20:42:27.946Z,21.22
2023-05-19T20:44:54.324Z,21.23
2023-05-19T20:47:21.051Z,21.22
2023-05-19T20:49:48.266Z,21.20
2023-05-19T20:52:17.780Z,21.19
2023-05-19T20:54:45.273Z,21.19
2023-05-19T20:57:12.208Z,21.19
2023-05-19T20:59:38.755Z,21.18
2023-05-19T21:02:06.153Z,21.18
2023-05-19T21:04:33.059Z,21.18
2023-05-19T21:06:59.936Z,21.18
2023-05-19T21:09:26.364Z,21.18
2023-05-19T21:11:55.655Z,21.18
2023-05-19T21:14:22.008Z,21.17
2023-05-19T21:16:51.615Z,21.16
2023-05-19T21:19:18.192Z,21.17
2023-05-19T21:21:46.240Z,21.15
2023-05-19T21:24:13.138Z,21.15
2023-05-19T21:26:39.760Z,21.15
2023-05-19T21:29:06.136Z,21.15
2023-05-19T21:31:32.547Z,21.15
2023-05-19T21:33:58.954Z,21.14
2023-05-19T21:36:25.319Z,21.14
2023-05-19T21:38:51.704Z,21.14
2023-05-19T21:41:18.085Z,21.13
2023-05-19T21:43:45.341Z,21.13
2023-05-19T21:46:12.442Z,21.13
2023-05-19T21:48:38.814Z,21.12
2023-05-19T21:51:05.170Z,21.10
2023-05-19T21:53:32.528Z,21.10
2023-05-19T21:55:59.153Z,21.10
2023-05-19T21:58:25.808Z,21.08
2023-05-19T22:00:53.294Z,21.08
2023-05-19T22:03:19.927Z,21.08
2023-05-19T22:05:50.177Z,21.07
2023-05-19T22:08:17.085Z,21.06
2023-05-19T22:10:43.485Z,21.07
2023-05-19T22:13:09.861Z,21.04
2023-05-19T22:15:36.712Z,21.04
2023-05-19T22:18:03.141Z,21.04
2023-05-19T22:20:29.518Z,21.05
2023-05-19T22:22:57.523Z,21.02
2023-05-19T22:25:23.905Z,21.02
2023-05-19T22:27:50.294Z,21.05
2023-05-19T22:30:17.149Z,21.05
2023-05-19T22:32:43.543Z,21.06
2023-05-19T22:35:10.784Z,21.07
2023-05-19T22:37:37.140Z,21.08
2023-05-19T22:40:03.568Z,21.07
2023-05-19T22:42:29.927Z,21.07
2023-05-19T22:44:56.302Z,21.08
2023-05-19T22:47:22.920Z,21.08
2023-05-19T22:49:49.550Z,21.08
2023-05-19T22:52:16.095Z,21.08
2023-05-19T22:54:42.468Z,21.07
2023-05-19T22:57:08.834Z,21.06
2023-05-19T22:59:35.847Z,21.07
2023-05-19T23:02:02.295Z,21.06
2023-05-19T23:04:28.729Z,21.03
2023-05-19T23:06:55.148Z,21.06
2023-05-19T23:09:22.117Z,21.06
2023-05-19T23:11:48.595Z,21.05
2023-05-19T23:14:14.975Z,21.06
2023-05-19T23:16:41.377Z,21.06
2023-05-19T23:19:07.847Z,21.06
2023-05-19T23:21:34.236Z,21.05
2023-05-19T23:24:00.612Z,21.06
2023-05-19T23:26:26.973Z,21.06
2023-05-19T23:28:53.359Z,21.06
2023-05-19T23:31:19.784Z,21.07
2023-05-19T23:33:46.280Z,21.06
2023-05-19T23:36:12.721Z,21.04
2023-05-19T23:38:39.107Z,21.02
2023-05-19T23:41:05.677Z,21.01
2023-05-19T23:43:34.804Z,21.03
2023-05-19T23:46:01.579Z,21.01
2023-05-19T23:48:28.308Z,21.01
2023-05-19T23:50:54.685Z,21.01
2023-05-19T23:53:21.179Z,21.01
2023-05-19T23:55:47.883Z,21.00
2023-05-19T23:58:15.814Z,21.00
